Time;durP1;ratioP1;P1;durP2;ratioP2;P2;SDS_P1;SDS_P2;PMS_P1;PMS_P2;Temp;Humidity;BMP_temperature;BMP_pressure;BME280_temperature;BME280_humidity;BME280_pressure;Samples;Min_cycle;Max_cycle;Signal;HPM_P1;HPM_P2
2023/10/10 00:01:46;;;;;;;11.32;6.95;;;;;;;15.31;100.00;100907.88;5083647;28;20045;-76
2023/10/10 00:04:19;;;;;;;12.25;7.28;;;;;;;15.28;100.00;100908.91;5067714;28;20037;-76
2023/10/10 00:06:49;;;;;;;10.55;7.13;;;;;;;15.26;100.00;100899.28;5076789;28;20048;-77
2023/10/10 00:09:18;;;;;;;12.23;7.72;;;;;;;15.23;100.00;100903.00;5075945;28;20040;-77
2023/10/10 00:11:51;;;;;;;14.90;7.43;;;;;;;15.20;100.00;100897.84;5072320;28;20056;-76
2023/10/10 00:14:19;;;;;;;;;;;;;;;15.27;100.00;100917.00;5028971;28;20151;-76
2023/10/10 00:16:54;;;;;;;13.98;8.32;;;;;;;15.15;100.00;100902.56;5086243;28;19932;-76
2023/10/10 00:19:29;;;;;;;15.70;8.20;;;;;;;15.22;100.00;100905.75;5073895;28;20086;-76
2023/10/10 00:21:59;;;;;;;13.23;7.85;;;;;;;15.20;100.00;100908.50;5070663;28;20049;-77
2023/10/10 00:24:30;;;;;;;15.80;8.38;;;;;;;15.14;100.00;100903.50;5066537;28;20053;-76
2023/10/10 00:27:12;;;;;;;13.73;8.50;;;;;;;15.03;100.00;100896.13;5060676;28;20048;-76
2023/10/10 00:29:46;;;;;;;13.60;7.88;;;;;;;15.01;100.00;100899.84;5085296;28;20056;-76
2023/10/10 00:32:17;;;;;;;13.23;7.70;;;;;;;14.97;100.00;100896.47;5056698;28;20123;-76
2023/10/10 00:34:48;;;;;;;15.30;8.32;;;;;;;14.97;100.00;100909.81;5066630;28;20513;-76
2023/10/10 00:37:21;;;;;;;17.45;8.45;;;;;;;14.88;100.00;100904.16;5074542;28;20037;-76
2023/10/10 00:39:53;;;;;;;13.88;8.52;;;;;;;14.86;100.00;100906.03;5059538;28;20044;-77
2023/10/10 00:42:36;;;;;;;13.70;8.00;;;;;;;14.80;100.00;100909.91;5067092;28;20054;-77
2023/10/10 00:45:12;;;;;;;13.90;7.63;;;;;;;14.78;100.00;100913.63;5066504;28;20044;-77
2023/10/10 00:47:48;;;;;;;12.57;7.90;;;;;;;14.74;100.00;100904.94;5073587;28;20046;-77
2023/10/10 00:50:19;;;;;;;11.55;7.40;;;;;;;14.49;100.00;100868.09;5074898;28;20051;-77
2023/10/10 00:52:52;;;;;;;12.60;7.88;;;;;;;14.64;100.00;100899.25;5073587;28;20055;-76
2023/10/10 00:55:24;;;;;;;12.77;7.30;;;;;;;14.63;100.00;100891.34;5077294;28;20036;-75
2023/10/10 00:57:55;;;;;;;13.35;7.93;;;;;;;14.69;100.00;100907.00;5071868;28;20041;-75
2023/10/10 01:00:25;;;;;;;13.48;8.30;;;;;;;14.67;100.00;100903.53;5079350;28;20036;-75
2023/10/10 01:02:56;;;;;;;11.20;7.40;;;;;;;14.66;100.00;100899.16;5075357;28;20103;-77
2023/10/10 01:05:39;;;;;;;13.25;7.47;;;;;;;14.64;100.00;100903.72;5068619;28;20470;-74
2023/10/10 01:08:17;;;;;;;13.30;7.82;;;;;;;14.60;100.00;100907.50;5060128;28;20045;-76
2023/10/10 01:10:49;;;;;;;12.02;7.85;;;;;;;14.57;100.00;100907.69;5072195;28;20109;-76
2023/10/10 01:13:19;;;;;;;14.23;8.00;;;;;;;14.50;100.00;100906.28;5075234;28;20063;-75
2023/10/10 01:15:49;;;;;;;12.00;7.47;;;;;;;14.44;100.00;100909.31;5083673;28;20044;-76
2023/10/10 01:18:24;;;;;;;11.38;7.07;;;;;;;14.39;100.00;100907.72;5073018;28;20181;-77
2023/10/10 01:20:56;;;;;;;14.23;8.15;;;;;;;14.34;100.00;100909.75;5075735;28;20056;-77
2023/10/10 01:23:27;;;;;;;11.80;7.65;;;;;;;14.26;100.00;100901.34;5075893;28;20036;-75
2023/10/10 01:26:05;;;;;;;12.27;7.75;;;;;;;14.23;100.00;100904.16;5083760;28;20039;-75
2023/10/10 01:28:34;;;;;;;14.13;7.78;;;;;;;14.23;100.00;100901.50;5062724;28;20048;-75
2023/10/10 01:31:10;;;;;;;13.68;7.75;;;;;;;14.21;100.00;100902.50;5061553;28;20586;-76
2023/10/10 01:33:47;;;;;;;11.63;7.55;;;;;;;14.16;100.00;100900.13;5061295;28;20040;-75
2023/10/10 01:36:29;;;;;;;14.02;7.53;;;;;;;14.13;100.00;100894.94;5052611;28;20052;-76
2023/10/10 01:39:19;;;;;;;11.25;7.72;;;;;;;14.00;100.00;100877.91;5081224;28;20085;-76
2023/10/10 01:41:51;;;;;;;13.15;7.90;;;;;;;14.07;100.00;100889.06;5075666;28;20048;-76
2023/10/10 01:44:22;;;;;;;12.50;7.43;;;;;;;13.98;100.00;100883.31;5058856;28;20056;-76
2023/10/10 01:46:53;;;;;;;13.07;8.45;;;;;;;13.97;100.00;100883.41;5071643;28;20051;-75
2023/10/10 01:49:28;;;;;;;14.37;8.97;;;;;;;13.97;100.00;100889.59;5074654;28;20540;-75
2023/10/10 01:51:59;;;;;;;11.07;7.70;;;;;;;13.99;100.00;100886.84;5078532;28;20130;-75
2023/10/10 01:54:40;;;;;;;13.55;7.85;;;;;;;13.99;100.00;100886.84;5072285;28;20040;-76
2023/10/10 01:57:12;;;;;;;13.73;8.10;;;;;;;13.95;100.00;100883.47;5074761;28;20050;-76
2023/10/10 01:59:41;;;;;;;15.55;8.90;;;;;;;13.99;100.00;100879.72;5081010;28;20103;-76
2023/10/10 02:02:18;;;;;;;11.90;7.90;;;;;;;14.01;100.00;100879.59;5057918;28;20116;-76
2023/10/10 02:04:56;;;;;;;16.17;8.38;;;;;;;14.04;100.00;100890.97;5070136;28;20052;-76
2023/10/10 02:07:31;;;;;;;14.65;8.10;;;;;;;13.98;100.00;100885.97;5078187;28;20040;-75
2023/10/10 02:10:13;;;;;;;13.98;7.57;;;;;;;13.94;100.00;100889.72;5078093;28;20064;-76
2023/10/10 02:12:45;;;;;;;14.70;8.02;;;;;;;13.90;100.00;100881.97;5065770;28;20527;-76
2023/10/10 02:15:18;;;;;;;12.35;7.78;;;;;;;13.82;100.00;100876.22;5062729;28;20119;-75
2023/10/10 02:17:54;;;;;;;14.02;8.13;;;;;;;13.84;100.00;100885.00;5072041;28;20036;-77
2023/10/10 02:20:49;;;;;;;13.25;7.53;;;;;;;13.81;100.00;100885.16;5069319;28;20041;-76
2023/10/10 02:23:32;;;;;;;11.88;8.02;;;;;;;13.79;100.00;100889.69;5054800;28;20040;-75
2023/10/10 02:26:07;;;;;;;13.88;7.97;;;;;;;13.73;100.00;100885.53;5062726;28;20125;-77
2023/10/10 02:28:47;;;;;;;14.90;8.50;;;;;;;13.73;100.00;100882.00;5073938;28;20044;-75
2023/10/10 02:31:18;;;;;;;15.57;8.55;;;;;;;13.71;100.00;100882.09;5075003;28;20063;-75
2023/10/10 02:33:55;;;;;;;15.77;8.35;;;;;;;13.69;100.00;100879.50;5077365;28;20055;-75
2023/10/10 02:36:32;;;;;;;14.23;8.05;;;;;;;13.63;100.00;100873.66;5067619;28;20067;-76
2023/10/10 02:39:19;;;;;;;13.82;9.23;;;;;;;13.63;100.00;100877.19;5074296;28;20041;-76
2023/10/10 02:41:51;;;;;;;13.20;8.70;;;;;;;13.68;100.00;100872.47;5069534;28;20067;-75
2023/10/10 02:44:46;;;;;;;14.10;8.52;;;;;;;13.74;100.00;100873.94;5074525;28;20052;-75
2023/10/10 02:47:30;;;;;;;14.63;8.45;;;;;;;13.76;100.00;100879.19;5065006;28;20063;-76
2023/10/10 02:50:09;;;;;;;16.25;9.00;;;;;;;13.68;100.00;100883.13;5071083;28;20140;-77
2023/10/10 02:52:45;;;;;;;12.23;7.90;;;;;;;13.58;100.00;100876.53;5045516;28;20078;-76
2023/10/10 02:55:22;;;;;;;13.55;8.15;;;;;;;13.58;100.00;100878.34;5061080;28;20086;-74
2023/10/10 02:57:53;;;;;;;12.32;8.05;;;;;;;13.52;100.00;100868.91;5087342;28;20094;-76
2023/10/10 03:00:28;;;;;;;15.18;8.25;;;;;;;13.46;100.00;100879.84;5073115;28;20048;-77
2023/10/10 03:03:03;;;;;;;16.02;8.63;;;;;;;13.39;100.00;100881.09;5053408;28;20045;-75
2023/10/10 03:05:43;;;;;;;12.93;7.80;;;;;;;13.31;100.00;100877.97;5077329;28;20052;-75
2023/10/10 03:08:16;;;;;;;14.65;8.40;;;;;;;13.32;100.00;100890.31;5071748;28;20053;-77
2023/10/10 03:10:54;;;;;;;14.80;8.27;;;;;;;13.29;100.00;100885.16;5091276;28;20044;-75
2023/10/10 03:13:31;;;;;;;13.75;8.27;;;;;;;13.38;100.00;100889.16;5056129;28;20036;-75
2023/10/10 03:16:40;;;;;;;15.35;9.10;;;;;;;13.33;100.00;100882.28;5060467;28;20055;-76
2023/10/10 03:19:26;;;;;;;16.67;8.73;;;;;;;13.26;100.00;100879.97;5090055;28;20454;-75
2023/10/10 03:25:09;;;;;;;13.18;8.27;;;;;;;13.15;100.00;100885.00;5093013;28;20048;-76
2023/10/10 03:27:54;;;;;;;13.93;9.13;;;;;;;13.09;100.00;100885.25;5089838;28;20066;-76
2023/10/10 03:30:50;;;;;;;21.38;8.77;;;;;;;13.07;100.00;100887.97;5079112;28;20051;-76
2023/10/10 03:33:35;;;;;;;12.68;8.23;;;;;;;13.00;100.00;100874.16;5081194;28;20045;-76
2023/10/10 03:36:30;;;;;;;13.68;8.07;;;;;;;12.97;100.00;100874.28;5096890;28;20113;-76
2023/10/10 03:39:26;;;;;;;16.60;9.93;;;;;;;13.00;100.00;100881.25;5084297;28;20115;-76
2023/10/10 05:25:41;;;;;;;17.67;9.93;;;;;;;12.28;100.00;100890.00;5098543;28;20033;-76
2023/10/10 05:28:13;;;;;;;16.38;10.63;;;;;;;12.24;100.00;100883.13;5086682;28;20055;-76
2023/10/10 05:30:43;;;;;;;21.25;11.05;;;;;;;12.16;100.00;100873.75;5078892;28;20098;-76
2023/10/10 05:33:19;;;;;;;19.00;10.23;;;;;;;12.16;100.00;100879.06;5060149;28;20044;-77
2023/10/10 05:35:48;;;;;;;19.98;10.95;;;;;;;12.06;100.00;100860.06;5074930;28;20049;-76
2023/10/10 05:38:19;;;;;;;19.40;10.77;;;;;;;12.12;100.00;100874.88;5076087;28;20044;-76
2023/10/10 05:40:51;;;;;;;22.00;11.88;;;;;;;12.17;100.00;100889.63;5098780;28;20040;-76
2023/10/10 05:43:26;;;;;;;17.02;10.43;;;;;;;12.20;100.00;100886.84;5080778;28;20542;-76
2023/10/10 05:45:54;;;;;;;22.08;10.90;;;;;;;12.19;100.00;100886.91;5077343;28;20075;-77
2023/10/10 05:48:23;;;;;;;17.75;10.85;;;;;;;12.15;100.00;100878.22;5051431;28;20052;-75
2023/10/10 05:50:57;;;;;;;21.15;12.95;;;;;;;12.13;100.00;100877.41;5082646;28;20071;-77
2023/10/10 05:53:26;;;;;;;18.90;11.27;;;;;;;12.21;100.00;100885.91;5095669;28;20044;-76
2023/10/10 05:55:59;;;;;;;16.98;11.80;;;;;;;12.23;100.00;100884.06;5081608;28;20133;-75
2023/10/10 05:58:28;;;;;;;17.27;11.57;;;;;;;12.24;100.00;100883.13;5057455;28;20139;-75
2023/10/10 06:01:21;;;;;;;22.67;10.75;;;;;;;12.29;100.00;100883.75;5061557;28;20103;-76
2023/10/10 06:03:51;;;;;;;23.67;11.70;;;;;;;12.32;100.00;100884.53;5088360;28;20044;-77
2023/10/10 06:06:21;;;;;;;21.45;11.38;;;;;;;12.38;100.00;100889.59;5070330;28;20107;-77
2023/10/10 06:08:58;;;;;;;17.92;11.43;;;;;;;12.39;100.00;100888.66;5066825;28;20066;-76
2023/10/10 06:11:29;;;;;;;19.98;10.93;;;;;;;12.41;100.00;100892.97;5073910;28;20051;-76
2023/10/10 06:13:59;;;;;;;19.50;10.55;;;;;;;12.51;100.00;100888.06;5075001;28;20048;-76
2023/10/10 06:16:28;;;;;;;17.37;10.90;;;;;;;12.55;100.00;100892.31;5090964;28;20052;-76
2023/10/10 06:18:57;;;;;;;19.75;10.65;;;;;;;12.56;100.00;100883.41;5070067;28;20508;-76
2023/10/10 06:21:29;;;;;;;18.20;11.10;;;;;;;12.64;100.00;100895.38;5087174;28;20427;-77
2023/10/10 06:23:58;;;;;;;18.50;11.52;;;;;;;12.69;100.00;100897.84;5091955;28;20094;-76
2023/10/10 06:26:30;;;;;;;18.20;10.40;;;;;;;12.67;100.00;100881.09;5074190;28;20050;-76
2023/10/10 06:29:01;;;;;;;19.55;10.77;;;;;;;12.73;100.00;100886.13;5073702;28;20051;-76
2023/10/10 06:31:33;;;;;;;19.25;11.13;;;;;;;12.90;100.00;100906.56;5078443;28;20066;-76
2023/10/10 06:34:19;;;;;;;16.98;10.80;;;;;;;12.98;100.00;100907.91;5074666;28;20040;-75
2023/10/10 06:36:49;;;;;;;14.50;9.95;;;;;;;13.08;100.00;100910.09;5062318;28;20121;-77
2023/10/10 06:39:19;;;;;;;20.10;12.20;;;;;;;13.28;100.00;100918.00;5068736;28;20469;-77
2023/10/10 06:41:50;;;;;;;21.48;10.45;;;;;;;13.26;100.00;100893.28;5071576;28;20467;-76
2023/10/10 06:44:33;;;;;;;20.48;9.75;;;;;;;13.51;100.00;100919.53;5087444;28;20120;-77
2023/10/10 06:47:11;;;;;;;16.40;10.18;;;;;;;13.57;100.00;100905.88;5065164;28;20152;-76
2023/10/10 06:49:43;;;;;;;20.88;10.80;;;;;;;13.61;100.00;100921.63;5082954;28;20050;-76
2023/10/10 06:52:18;;;;;;;17.00;10.77;;;;;;;13.63;100.00;100926.88;5056521;28;20044;-76
2023/10/10 06:54:53;;;;;;;18.55;10.60;;;;;;;13.61;100.00;100926.94;5083583;28;20047;-76
2023/10/10 06:57:35;;;;;;;21.42;10.88;;;;;;;13.65;100.00;100928.53;5080143;28;21432;-76
2023/10/10 07:00:27;;;;;;;22.80;11.13;;;;;;;13.79;100.00;100938.47;5074648;28;20044;-77
2023/10/10 07:03:00;;;;;;;18.80;10.38;;;;;;;13.89;100.00;100938.84;5072406;28;20143;-77
2023/10/10 07:05:33;;;;;;;22.70;11.48;;;;;;;13.91;100.00;100916.50;5074503;28;20104;-77
2023/10/10 07:10:53;;;;;;;24.15;11.48;;;;;;;14.51;100.00;100913.34;5065308;28;20036;-77
2023/10/10 07:13:29;;;;;;;25.33;11.45;;;;;;;14.65;100.00;100918.75;5058793;28;20044;-77
2023/10/10 07:16:01;;;;;;;22.80;10.75;;;;;;;14.80;100.00;100911.72;5093713;28;20072;-76
2023/10/10 07:18:30;;;;;;;21.95;10.80;;;;;;;14.99;100.00;100923.06;5062759;28;20536;-76
2023/10/10 07:21:17;;;;;;;22.48;11.70;;;;;;;15.24;100.00;100917.19;5072651;28;20064;-76
2023/10/10 07:24:02;;;;;;;24.85;11.98;;;;;;;15.27;100.00;100922.34;5093068;28;20048;-77
2023/10/10 07:26:41;;;;;;;21.13;11.93;;;;;;;15.37;100.00;100923.53;5089944;28;20048;-77
2023/10/10 07:29:27;;;;;;;23.23;11.52;;;;;;;15.49;100.00;100925.47;5066733;28;20121;-76
2023/10/10 07:32:04;;;;;;;20.73;10.73;;;;;;;15.71;100.00;100925.09;5054615;28;20212;-77
2023/10/10 07:34:38;;;;;;;23.95;11.55;;;;;;;15.98;100.00;100925.25;5088245;28;20541;-77
2023/10/10 07:37:08;;;;;;;19.55;11.13;;;;;;;16.20;100.00;100919.47;5049364;28;20052;-77
2023/10/10 07:39:55;;;;;;;20.48;10.48;;;;;;;16.41;100.00;100918.97;5068901;28;20111;-76
2023/10/10 07:42:27;;;;;;;22.20;11.70;;;;;;;16.59;100.00;100919.63;5072309;28;20051;-78
2023/10/10 07:44:58;;;;;;;18.08;11.35;;;;;;;16.70;100.00;100925.16;5073933;28;20101;-78
2023/10/10 07:47:29;;;;;;;22.60;11.90;;;;;;;16.77;100.00;100925.63;5083810;28;20541;-76
2023/10/10 07:49:59;;;;;;;23.35;11.15;;;;;;;16.79;100.00;100916.56;5089652;28;20142;-76
2023/10/10 07:52:35;;;;;;;20.88;11.40;;;;;;;16.83;100.00;100922.59;5084862;28;20052;-77
2023/10/10 07:55:04;;;;;;;25.25;11.35;;;;;;;16.76;100.00;100929.25;5072922;28;20040;-77
2023/10/10 07:57:55;;;;;;;23.88;11.80;;;;;;;16.75;100.00;100925.72;5070187;28;20105;-76
2023/10/10 08:00:35;;;;;;;20.25;11.30;;;;;;;16.75;100.00;100922.19;5076235;28;20126;-78
2023/10/10 08:03:12;;;;;;;20.25;10.60;;;;;;;16.83;100.00;100926.13;5069376;28;20056;-76
2023/10/10 08:05:42;;;;;;;18.95;10.70;;;;;;;16.82;100.00;100923.53;5080068;28;20084;-77
2023/10/10 08:08:13;;;;;;;15.18;10.43;;;;;;;16.65;100.00;100931.78;5066718;28;20125;-77
2023/10/10 08:10:44;;;;;;;15.45;9.23;;;;;;;16.38;100.00;100927.16;5077009;28;20040;-75
2023/10/10 08:13:14;;;;;;;17.00;10.00;;;;;;;16.27;100.00;100924.31;5061734;28;20051;-77
2023/10/10 08:15:56;;;;;;;17.80;10.55;;;;;;;16.30;100.00;100931.28;5090934;28;20056;-77
2023/10/10 08:21:11;;;;;;;17.30;10.05;;;;;;;16.18;100.00;100919.56;5059957;28;20047;-76
2023/10/10 08:23:42;;;;;;;22.08;11.55;;;;;;;16.22;100.00;100913.03;5057812;28;20040;-77
2023/10/10 08:26:17;;;;;;;19.17;11.70;;;;;;;16.11;100.00;100918.19;5071734;28;20074;-77
2023/10/10 08:28:47;;;;;;;22.55;11.63;;;;;;;16.14;100.00;100918.00;5066478;28;20067;-77
2023/10/10 08:31:22;;;;;;;18.70;10.75;;;;;;;16.20;100.00;100917.66;5093488;28;20040;-76
2023/10/10 08:33:52;;;;;;;22.85;12.05;;;;;;;16.22;100.00;100913.03;5073774;28;20522;-76
2023/10/10 08:36:43;;;;;;;21.20;10.52;;;;;;;16.21;100.00;100906.00;5074569;28;20032;-77
2023/10/10 08:39:25;;;;;;;22.75;11.68;;;;;;;16.37;100.00;100921.94;5083524;28;20094;-78
2023/10/10 08:41:55;;;;;;;21.50;11.15;;;;;;;16.43;100.00;100917.06;5077316;28;20044;-77
2023/10/10 08:44:25;;;;;;;;;;;;;;;16.55;100.00;100927.91;5092960;28;20044;-77
2023/10/10 08:46:59;;;;;;;21.95;11.15;;;;;;;16.59;100.00;100921.44;5071456;28;20294;-75
2023/10/10 08:49:30;;;;;;;21.08;11.48;;;;;;;16.80;100.00;100920.09;5064298;28;20048;-77
2023/10/10 08:52:02;;;;;;;16.63;10.48;;;;;;;17.07;100.00;100926.31;5075601;28;20045;-76
2023/10/10 08:54:38;;;;;;;18.17;11.25;;;;;;;17.33;100.00;100918.38;5081357;28;20131;-76
2023/10/10 08:57:11;;;;;;;19.70;11.38;;;;;;;17.54;100.00;100911.59;5072482;28;20114;-77
2023/10/10 08:59:42;;;;;;;19.25;10.52;;;;;;;17.69;100.00;100907.03;5088685;28;20414;-77
2023/10/10 09:02:19;;;;;;;20.77;11.77;;;;;;;17.83;100.00;100910.47;5066165;28;20130;-77
2023/10/10 09:04:51;;;;;;;18.08;11.02;;;;;;;17.97;100.00;100909.53;5076609;28;20396;-77
2023/10/10 09:07:28;;;;;;;17.65;10.43;;;;;;;18.17;100.00;100913.50;5076521;28;20044;-78
2023/10/10 09:10:04;;;;;;;19.38;10.77;;;;;;;18.23;100.00;100911.25;5070590;28;20060;-78
2023/10/10 09:12:34;;;;;;;16.83;9.27;;;;;;;18.25;100.00;100905.78;5076443;28;20114;-78
2023/10/10 09:15:16;;;;;;;15.82;8.98;;;;;;;18.10;100.00;100906.88;5060759;28;20035;-76
2023/10/10 09:17:47;;;;;;;15.48;9.15;;;;;;;17.88;100.00;100913.72;5062969;28;20130;-77
2023/10/10 09:20:28;;;;;;;18.85;9.73;;;;;;;17.83;100.00;100918.53;5078066;28;20063;-77
2023/10/10 09:23:02;;;;;;;20.08;9.13;;;;;;;17.74;100.00;100908.44;5060443;28;20044;-77
2023/10/10 09:25:42;;;;;;;17.10;8.55;;;;;;;17.78;100.00;100909.09;5076330;28;20048;-77
2023/10/10 09:28:15;;;;;;;16.05;9.15;;;;;;;17.84;100.00;100903.31;5074740;28;20040;-77
2023/10/10 09:30:50;;;;;;;17.58;8.32;;;;;;;17.97;100.00;100911.34;5090941;28;20040;-76
2023/10/10 09:33:27;;;;;;;17.60;8.27;;;;;;;18.08;100.00;100896.25;5062659;28;20135;-76
2023/10/10 09:36:08;;;;;;;18.33;9.30;;;;;;;18.15;100.00;100896.66;5093498;28;20062;-76
2023/10/10 09:38:45;;;;;;;16.30;9.75;;;;;;;18.13;100.00;100901.28;5088784;28;20066;-76
2023/10/10 09:41:27;;;;;;;15.77;9.32;;;;;;;18.04;100.00;100893.88;5078241;28;20121;-75
2023/10/10 09:44:19;;;;;;;14.20;8.30;;;;;;;18.03;100.00;100878.78;5074121;28;20052;-76
2023/10/10 09:47:13;;;;;;;15.23;8.13;;;;;;;18.35;100.00;100890.75;5083968;28;20055;-75
2023/10/10 09:49:44;;;;;;;17.55;9.18;;;;;;;18.57;100.00;100882.03;5082612;28;20123;-78
2023/10/10 09:55:38;;;;;;;16.55;10.07;;;;;;;18.51;100.00;100883.31;5087795;28;20047;-75
2023/10/10 09:58:00;;;;;;;15.27;8.85;;;;;;;18.43;100.00;100880.31;5089889;28;20052;-77
2023/10/10 10:00:44;;;;;;;17.77;9.63;;;;;;;18.48;100.00;100883.53;5077455;28;20044;-76
2023/10/10 10:03:31;;;;;;;19.55;9.45;;;;;;;18.60;100.00;100883.66;5092659;28;20131;-77
2023/10/10 10:06:34;;;;;;;15.50;8.70;;;;;;;18.68;100.00;100878.59;5075758;28;20063;-77
2023/10/10 10:09:38;;;;;;;18.55;9.80;;;;;;;18.92;100.00;100879.47;5055235;28;20151;-79
2023/10/10 10:12:19;;;;;;;18.42;9.27;;;;;;;18.98;100.00;100878.16;5092768;28;20138;-78
2023/10/10 10:14:59;;;;;;;16.65;9.52;;;;;;;19.10;100.00;100883.47;5075692;28;20036;-78
2023/10/10 10:17:46;;;;;;;18.15;8.90;;;;;;;19.27;100.00;100885.75;5069420;28;20047;-76
2023/10/10 10:20:33;;;;;;;20.20;9.93;;;;;;;19.50;100.00;100888.56;5064641;28;20606;-77
2023/10/10 10:23:04;;;;;;;19.05;10.30;;;;;;;19.70;100.00;100884.31;5073987;28;20051;-77
2023/10/10 10:25:36;;;;;;;19.42;10.20;;;;;;;19.72;100.00;100891.28;5073362;28;20075;-76
2023/10/10 10:28:12;;;;;;;19.70;9.60;;;;;;;19.61;100.00;100888.59;5067185;28;20075;-77
2023/10/10 10:30:53;;;;;;;16.83;9.48;;;;;;;19.47;100.00;100870.81;5069220;28;20043;-77
2023/10/10 10:33:24;;;;;;;18.48;8.85;;;;;;;19.65;100.00;100873.09;5056687;28;20131;-76
2023/10/10 10:36:15;;;;;;;17.58;8.88;;;;;;;19.89;94.83;100890.84;5072629;28;20049;-77
2023/10/10 10:41:48;;;;;;;14.07;7.97;;;;;;;19.91;93.62;100886.22;5087992;28;20047;-77
2023/10/10 10:44:28;;;;;;;15.70;8.05;;;;;;;20.02;93.50;100877.28;5069894;28;20044;-77
2023/10/10 10:46:58;;;;;;;13.85;7.95;;;;;;;19.85;93.06;100889.38;5073348;28;20055;-77
2023/10/10 10:49:28;;;;;;;15.30;7.10;;;;;;;19.69;94.84;100867.34;5065694;28;20043;-77
2023/10/10 10:52:17;;;;;;;20.10;9.57;;;;;;;19.85;95.46;100877.75;5073776;28;20131;-77
2023/10/10 10:55:09;;;;;;;16.20;7.80;;;;;;;20.07;93.60;100882.31;5088302;28;20093;-77
2023/10/10 10:57:40;;;;;;;12.80;7.80;;;;;;;20.14;92.01;100888.94;5092904;28;20048;-78
2023/10/10 11:00:27;;;;;;;13.68;8.60;;;;;;;20.05;92.21;100878.88;5070470;28;20112;-76
2023/10/10 11:03:09;;;;;;;14.73;8.05;;;;;;;20.19;94.09;100892.94;5096756;28;20042;-79
2023/10/10 11:05:40;;;;;;;12.05;7.45;;;;;;;20.29;92.51;100872.44;5096947;28;20049;-78
2023/10/10 11:08:11;;;;;;;18.38;9.00;;;;;;;20.43;87.37;100859.75;5079368;28;20048;-77
2023/10/10 11:10:46;;;;;;;16.38;8.45;;;;;;;20.76;87.49;100873.16;5069641;28;20079;-75
2023/10/10 11:13:14;;;;;;;16.50;7.63;;;;;;;21.01;84.77;100869.28;5059951;28;20078;-77
2023/10/10 11:15:45;;;;;;;14.65;7.65;;;;;;;21.11;83.79;100864.81;5058534;28;20098;-78
2023/10/10 11:18:24;;;;;;;14.45;7.82;;;;;;;21.16;82.17;100856.38;5082631;28;20050;-78
2023/10/10 11:21:08;;;;;;;15.77;7.78;;;;;;;21.29;81.77;100863.31;5072204;28;20032;-79
2023/10/10 11:23:42;;;;;;;18.35;7.85;;;;;;;21.31;80.53;100860.50;5100185;28;20039;-77
2023/10/10 11:26:15;;;;;;;13.02;7.25;;;;;;;21.11;82.38;100848.66;5085846;28;20036;-77
2023/10/10 11:28:48;;;;;;;15.73;6.82;;;;;;;20.84;82.05;100845.59;5076749;28;20054;-77
2023/10/10 11:31:29;;;;;;;15.98;7.22;;;;;;;20.93;81.57;100842.16;5067818;28;20041;-77
2023/10/10 11:34:10;;;;;;;13.32;7.10;;;;;;;20.92;81.68;100837.75;5087138;28;20044;-77
2023/10/10 11:36:41;;;;;;;17.80;8.27;;;;;;;21.13;80.52;100830.53;5072107;28;20079;-78
2023/10/10 11:39:34;;;;;;;19.65;8.25;;;;;;;21.44;79.35;100828.84;5051365;28;20074;-77
2023/10/10 11:42:05;;;;;;;15.95;7.80;;;;;;;21.38;78.60;100831.22;5076618;28;20101;-78
2023/10/10 11:44:34;;;;;;;16.13;8.05;;;;;;;21.45;80.17;100829.69;5070988;28;20097;-77
2023/10/10 11:47:08;;;;;;;14.77;7.35;;;;;;;21.63;77.76;100818.19;5075628;28;20056;-76
2023/10/10 11:49:41;;;;;;;15.48;7.93;;;;;;;21.60;75.34;100815.75;5071805;28;20139;-77
2023/10/10 11:52:18;;;;;;;16.80;8.10;;;;;;;21.39;75.78;100816.75;5094941;28;20068;-78
2023/10/10 11:54:47;;;;;;;16.08;8.15;;;;;;;21.35;77.04;100810.78;5078450;28;20615;-78
2023/10/10 11:57:18;;;;;;;16.20;7.72;;;;;;;21.35;77.66;100808.06;5076416;28;20497;-77
2023/10/10 11:59:47;;;;;;;16.15;7.45;;;;;;;21.42;78.84;100808.38;5091241;28;20335;-78
2023/10/10 12:02:18;;;;;;;14.00;7.82;;;;;;;21.59;79.36;100800.56;5082241;28;20043;-76
2023/10/10 12:04:47;;;;;;;16.27;7.13;;;;;;;21.60;76.80;100796.03;5089317;28;20115;-76
2023/10/10 12:07:24;;;;;;;14.77;7.82;;;;;;;21.47;77.62;100779.22;5105448;28;20048;-77
2023/10/10 12:09:54;;;;;;;14.10;6.95;;;;;;;21.39;76.03;100793.38;5077453;28;20243;-77
2023/10/10 12:12:25;;;;;;;17.77;7.57;;;;;;;21.15;77.13;100777.41;5074363;28;20037;-77
2023/10/10 12:15:00;;;;;;;15.60;7.38;;;;;;;20.95;77.44;100791.69;5086033;28;20045;-80
2023/10/10 12:17:31;;;;;;;18.30;7.72;;;;;;;20.88;80.96;100791.38;5081393;28;20044;-78
2023/10/10 12:20:00;;;;;;;11.77;7.28;;;;;;;21.03;82.48;100786.53;5075537;28;20161;-78
2023/10/10 12:22:27;;;;;;;14.77;7.30;;;;;;;21.25;81.15;100785.63;5075954;28;20056;-77
2023/10/10 12:24:57;;;;;;;15.95;7.55;;;;;;;21.41;81.56;100785.97;5057104;28;20044;-77
2023/10/10 12:27:30;;;;;;;14.82;6.85;;;;;;;21.32;78.37;100776.00;5073476;28;20056;-77
2023/10/10 12:30:01;;;;;;;15.55;7.50;;;;;;;21.34;79.53;100784.81;5083967;28;20416;-78
2023/10/10 12:32:34;;;;;;;17.08;6.90;;;;;;;21.39;77.82;100777.19;5077047;28;20056;-78
2023/10/10 12:35:04;;;;;;;13.95;7.25;;;;;;;21.45;77.76;100773.09;5094224;28;20044;-78
2023/10/10 12:37:36;;;;;;;14.68;6.50;;;;;;;21.41;77.20;100774.38;5073566;28;20053;-78
2023/10/10 12:40:10;;;;;;;16.27;6.60;;;;;;;21.41;77.80;100771.69;5050995;28;20210;-77
2023/10/10 12:42:43;;;;;;;15.27;7.18;;;;;;;21.25;75.94;100781.06;5071754;28;20103;-78
2023/10/10 12:45:14;;;;;;;20.02;7.88;;;;;;;21.12;77.20;100750.75;5070263;28;20518;-78
2023/10/10 12:47:43;;;;;;;12.38;6.93;;;;;;;21.26;77.97;100772.00;5066071;28;20147;-77
2023/10/10 12:50:14;;;;;;;13.07;7.07;;;;;;;21.32;77.93;100755.31;5077460;28;20137;-78
2023/10/10 12:52:46;;;;;;;11.63;6.13;;;;;;;21.57;77.99;100762.13;5085533;28;20072;-77
2023/10/10 12:55:16;;;;;;;11.20;5.85;;;;;;;21.61;77.07;100751.94;5090450;28;20110;-77
2023/10/10 12:57:46;;;;;;;15.45;6.68;;;;;;;21.69;74.97;100752.13;5079683;28;20046;-77
2023/10/10 13:00:25;;;;;;;;;;;;;;;21.66;76.11;100757.78;5081111;28;20053;-76
2023/10/10 13:02:54;;;;;;;13.45;6.72;;;;;;;21.50;77.04;100746.63;5066381;28;19924;-76
2023/10/10 13:05:27;;;;;;;11.85;6.05;;;;;;;21.52;78.42;100744.66;5082366;28;20049;-77
2023/10/10 13:07:58;;;;;;;11.00;6.03;;;;;;;21.64;78.57;100730.97;5084089;28;20044;-79
2023/10/10 13:10:34;;;;;;;11.50;6.35;;;;;;;21.93;77.28;100738.31;5078860;28;20048;-77
2023/10/10 13:13:07;;;;;;;11.85;6.57;;;;;;;21.90;72.57;100719.69;5078324;28;20052;-79
2023/10/10 13:15:49;;;;;;;14.38;6.10;;;;;;;22.02;72.24;100740.22;5074169;28;20040;-77
2023/10/10 13:18:24;;;;;;;13.38;6.53;;;;;;;21.94;72.42;100735.47;5074796;28;20121;-78
2023/10/10 13:20:53;;;;;;;12.55;5.85;;;;;;;21.96;74.38;100730.81;5052108;28;20049;-77
2023/10/10 13:23:22;;;;;;;13.95;7.03;;;;;;;22.04;73.53;100736.38;5074110;28;20468;-77
2023/10/10 13:25:50;;;;;;;11.43;6.22;;;;;;;22.05;74.01;100731.84;5071173;28;20494;-77
2023/10/10 13:28:20;;;;;;;15.02;6.18;;;;;;;21.93;72.77;100714.91;5074038;28;20523;-77
2023/10/10 13:30:51;;;;;;;10.70;6.20;;;;;;;21.99;72.36;100727.88;5068494;28;20060;-77
2023/10/10 13:33:21;;;;;;;;;;;;;;;21.98;73.00;100728.81;5053880;28;20072;-78
2023/10/10 13:35:50;;;;;;;11.43;5.72;;;;;;;21.93;73.60;100717.59;5075335;28;19928;-78
2023/10/10 13:38:19;;;;;;;13.93;6.10;;;;;;;21.95;72.76;100709.38;5103230;28;20052;-79
2023/10/10 13:40:48;;;;;;;16.55;7.40;;;;;;;21.94;72.89;100715.75;5084154;28;20037;-77
2023/10/10 13:43:19;;;;;;;14.20;7.35;;;;;;;21.91;73.51;100719.56;5084253;28;20068;-78
2023/10/10 13:45:49;;;;;;;12.65;6.93;;;;;;;21.94;74.73;100722.00;5051040;28;20044;-77